Niagara Falls, NY

4:34 PM EST on December 25, 2014 (GMT -0500)
Niagara Falls International | Change Station
CLOSE
Current Station
Airport
Location: Niagara Falls,
Elevation: 584 ft
Nearby Weather Stations

Elev 584 ft 43.11 °N, 78.94 °W | Updated 41 minutes ago

Overcast
Overcast
39 °F
Feels Like 29 °F
N
20
Wind Variable Wind from West
Gusts 29 mph

Today
High -- | Low -- °F
--% Chance of Precip.
Yesterday
High -- | Low -- °F
Precip. -- in
7:46 AM 4:46 PM
Waxing Crescent, 19% visible
Pressure 29.98 in
Visibility 10.0 miles
Clouds Few 2000 ft
Mostly Cloudy 3000 ft
Mostly Cloudy 4400 ft
Windchill 29 °F
Dew Point 29 °F
Humidity 67%
Rainfall 0.00 in
Snow Depth Not available.
UV 0 out of 12
Pollen .10 out of 12
Air Quality Not available.
Flu Activity Not available.
METAR KIAG 252053Z 26017G25KT 10SM FEW020 BKN030 BKN044 04/M02 A2995 RMK AO2 PK WND 25031/2031 RAB1957E30 SLP152 P0000 60000 T00391017 53046

More Conditions Fewer Conditions

Pressure 29.98 in
Visibility 10.0 miles
Clouds Few 2000 ft
Mostly Cloudy 3000 ft
Mostly Cloudy 4400 ft
Windchill 29 °F
Dew Point 29 °F
Humidity 67%
Rainfall 0.00 in
Snow Depth Not available.
UV 0 out of 12
Pollen .10 out of 12
Air Quality Not available.
Flu Activity Not available.
METAR KIAG 252053Z 26017G25KT 10SM FEW020 BKN030 BKN044 04/M02 A2995 RMK AO2 PK WND 25031/2031 RAB1957E30 SLP152 P0000 60000 T00391017 53046

More Conditions Fewer Conditions

10-Day Weather Forecast

Almanac

Astronomy

Dec. 25, 2014 Rise Set
Actual Time
Civil Twilight
Nautical Twilight
Astronomical Twilight
Moon
Length of Visible Light
Length of Day
Tomorrow will be .
, % of the Moon is Illuminated

Today's Extremes

State Highs State Lows

Community

WunderPhotos

Upload Photos

1,780,402 photos uploaded!

WunderBlogs® & News

Nearby

Air Quality

  Air Quality AQ Index Pollutant
Not available.

Snow Depth

Station Depth Elevation

Earthquake Activity

City Distance Mag. Time & Date
Minimum magnitude displayed is 2.5.

Coastal Water Temperatures

Place Temperature

Nearby Weather Stations